Time;durP1;ratioP1;P1;durP2;ratioP2;P2;SDS_P1;SDS_P2;PMS_P1;PMS_P2;Temp;Humidity;BMP_temperature;BMP_pressure;BME280_temperature;BME280_humidity;BME280_pressure;Samples;Min_cycle;Max_cycle;Signal;HPM_P1;HPM_P2
2022/03/28 00:00:20;;;;;;;26.05;4.68;;;9.70;61.80;;;;;;9179973;19;20010;-68
2022/03/28 00:03:25;;;;;;;29.02;6.35;;;9.70;62.00;;;;;;9180302;19;20022;-70
2022/03/28 00:06:30;;;;;;;23.33;5.95;;;9.70;61.90;;;;;;9181854;19;20110;-69
2022/03/28 00:09:35;;;;;;;23.30;5.20;;;9.60;62.00;;;;;;9183282;19;20014;-69
2022/03/28 00:12:40;;;;;;;27.35;4.68;;;9.60;62.00;;;;;;9182949;19;20014;-70
2022/03/28 00:15:48;;;;;;;21.83;5.47;;;9.60;62.10;;;;;;9181255;19;20479;-70
2022/03/28 00:18:53;;;;;;;29.40;5.20;;;9.50;62.20;;;;;;9177028;19;20154;-68
2022/03/28 00:21:58;;;;;;;27.05;5.57;;;9.50;62.80;;;;;;9180905;19;20355;-70
2022/03/28 00:25:03;;;;;;;17.70;4.20;;;9.40;62.20;;;;;;9181947;19;20022;-68
2022/03/28 00:28:09;;;;;;;22.73;5.68;;;9.40;62.20;;;;;;9182264;19;20026;-70
2022/03/28 00:31:17;;;;;;;19.65;4.30;;;9.40;62.40;;;;;;9181897;19;20014;-69
2022/03/28 00:34:23;;;;;;;25.50;5.75;;;9.30;62.40;;;;;;9180129;19;20006;-69
2022/03/28 00:37:28;;;;;;;23.00;5.10;;;9.30;62.40;;;;;;9181646;19;20464;-70
2022/03/28 00:40:34;;;;;;;19.50;5.00;;;9.20;62.40;;;;;;9180746;19;20122;-68
2022/03/28 00:43:46;;;;;;;15.20;4.53;;;9.20;62.40;;;;;;9181526;19;20038;-70
2022/03/28 00:46:58;;;;;;;15.55;4.35;;;9.20;62.60;;;;;;9181682;19;20043;-70
2022/03/28 00:50:04;;;;;;;17.55;4.85;;;9.10;62.60;;;;;;9181140;19;20400;-69
2022/03/28 00:53:12;;;;;;;12.20;4.13;;;9.10;62.60;;;;;;9179569;19;20506;-70
2022/03/28 00:56:18;;;;;;;24.08;5.70;;;9.00;62.60;;;;;;9181349;19;20017;-70
2022/03/28 00:59:23;;;;;;;16.38;5.20;;;9.00;62.60;;;;;;9179048;19;20069;-70
2022/03/28 01:02:31;;;;;;;15.13;5.05;;;9.00;62.80;;;;;;9177164;19;20014;-70
2022/03/28 01:05:37;;;;;;;17.38;5.70;;;8.90;62.80;;;;;;9179256;19;20018;-68
2022/03/28 01:08:42;;;;;;;18.20;4.55;;;8.80;62.70;;;;;;9178053;19;20086;-70
2022/03/28 01:11:50;;;;;;;19.58;5.18;;;8.80;62.80;;;;;;9179389;19;20011;-70
2022/03/28 01:14:56;;;;;;;18.75;5.25;;;8.80;62.90;;;;;;9179678;19;20029;-69
2022/03/28 01:18:09;;;;;;;19.15;5.00;;;8.80;63.50;;;;;;9178761;19;20021;-69
2022/03/28 01:21:17;;;;;;;15.98;5.07;;;8.70;62.90;;;;;;9171938;19;20011;-69
2022/03/28 01:24:22;;;;;;;13.15;5.05;;;8.70;63.00;;;;;;9178696;19;20133;-68
2022/03/28 01:27:28;;;;;;;17.42;4.68;;;8.70;63.00;;;;;;9180126;19;20518;-67
2022/03/28 01:30:35;;;;;;;15.60;4.70;;;8.60;63.00;;;;;;9187809;19;20101;-68
2022/03/28 01:33:40;;;;;;;18.35;5.80;;;8.60;63.10;;;;;;9189341;19;20014;-69
2022/03/28 01:36:48;;;;;;;15.23;5.28;;;8.50;63.00;;;;;;9187836;19;20011;-68
2022/03/28 01:39:53;;;;;;;14.13;4.30;;;8.50;63.20;;;;;;9186062;19;20475;-68
2022/03/28 01:43:00;;;;;;;14.23;5.20;;;8.40;63.10;;;;;;9186175;19;20020;-70
2022/03/28 01:46:05;;;;;;;12.13;5.68;;;8.40;63.20;;;;;;9189253;19;20011;-69
2022/03/28 01:49:10;;;;;;;14.27;5.38;;;8.40;63.20;;;;;;9188562;19;20018;-69
2022/03/28 01:52:18;;;;;;;10.35;5.13;;;8.30;63.20;;;;;;9188519;19;20014;-68
2022/03/28 01:55:23;;;;;;;10.10;5.28;;;8.30;63.30;;;;;;9187455;19;20030;-70
2022/03/28 01:58:28;;;;;;;10.88;6.35;;;8.20;63.30;;;;;;9188461;19;20022;-69
2022/03/28 02:01:34;;;;;;;13.13;6.40;;;8.20;63.30;;;;;;9184553;19;20506;-69
2022/03/28 02:04:39;;;;;;;11.75;6.35;;;8.10;63.30;;;;;;9185075;19;20019;-68
2022/03/28 02:07:52;;;;;;;14.70;7.68;;;8.10;63.40;;;;;;9187241;19;20015;-68
2022/03/28 02:11:00;;;;;;;22.20;8.05;;;8.00;63.50;;;;;;9187405;19;20018;-68
2022/03/28 02:14:05;;;;;;;17.15;8.18;;;8.00;63.40;;;;;;9187559;19;20007;-70
2022/03/28 02:17:10;;;;;;;15.32;7.18;;;7.90;63.40;;;;;;9185501;19;20633;-68
2022/03/28 02:20:17;;;;;;;22.58;8.50;;;7.90;63.50;;;;;;9181189;19;20482;-69
2022/03/28 02:23:26;;;;;;;19.60;8.38;;;7.80;63.50;;;;;;9186513;19;20356;-68
2022/03/28 02:26:31;;;;;;;28.50;8.90;;;7.80;63.70;;;;;;9185720;19;20018;-69
2022/03/28 02:29:36;;;;;;;26.25;10.27;;;7.70;63.60;;;;;;9184846;19;20070;-67
2022/03/28 02:32:41;;;;;;;23.25;9.68;;;7.60;63.70;;;;;;9186480;19;20067;-68
2022/03/28 02:35:46;;;;;;;20.00;8.98;;;7.60;63.70;;;;;;9186582;19;20022;-68
2022/03/28 02:38:53;;;;;;;23.02;9.77;;;7.50;63.80;;;;;;9186351;19;20015;-68
2022/03/28 02:41:58;;;;;;;24.23;9.88;;;7.50;64.00;;;;;;9183963;19;20026;-68
2022/03/28 02:45:04;;;;;;;23.45;9.50;;;7.50;64.00;;;;;;9184407;19;20025;-68
2022/03/28 02:48:10;;;;;;;26.48;10.90;;;7.40;64.10;;;;;;9181547;19;20025;-68
2022/03/28 02:51:17;;;;;;;27.63;10.75;;;7.40;64.20;;;;;;9185433;19;20374;-69
2022/03/28 02:54:25;;;;;;;23.77;9.73;;;7.30;64.20;;;;;;9186137;19;20118;-68
2022/03/28 02:57:30;;;;;;;24.13;9.07;;;7.30;64.40;;;;;;9184358;19;20082;-69
2022/03/28 03:00:37;;;;;;;21.20;9.32;;;7.30;64.40;;;;;;9182940;19;20017;-69
2022/03/28 03:03:42;;;;;;;24.25;9.52;;;7.30;64.50;;;;;;9183128;19;20024;-69
2022/03/28 03:06:47;;;;;;;19.00;8.98;;;7.20;64.50;;;;;;9184407;19;20463;-68
2022/03/28 03:09:55;;;;;;;20.02;8.15;;;7.20;64.60;;;;;;9182057;19;20007;-68
2022/03/28 03:13:00;;;;;;;20.30;8.32;;;7.20;64.80;;;;;;9184139;19;20010;-68
2022/03/28 03:16:05;;;;;;;18.92;8.35;;;7.10;64.80;;;;;;9183142;19;20014;-67
2022/03/28 03:19:11;;;;;;;17.73;8.30;;;7.10;64.80;;;;;;9179764;19;20022;-69
2022/03/28 03:22:16;;;;;;;19.15;7.53;;;7.10;64.90;;;;;;9181219;19;20020;-69
2022/03/28 03:25:24;;;;;;;15.45;8.25;;;7.10;65.00;;;;;;9183724;19;20014;-69
2022/03/28 03:28:29;;;;;;;15.13;6.95;;;7.00;65.10;;;;;;9184624;19;20033;-69
2022/03/28 03:31:34;;;;;;;17.83;7.35;;;7.00;65.10;;;;;;9184337;19;20020;-68
2022/03/28 03:34:39;;;;;;;13.63;7.32;;;7.00;65.20;;;;;;9183187;19;20021;-67
2022/03/28 03:37:44;;;;;;;17.65;7.47;;;7.00;65.30;;;;;;9184160;19;20511;-67
2022/03/28 03:40:52;;;;;;;13.65;6.70;;;7.00;65.30;;;;;;9183168;19;20027;-67
2022/03/28 03:43:57;;;;;;;15.55;6.40;;;7.00;65.40;;;;;;9179745;19;20022;-68
2022/03/28 03:47:02;;;;;;;17.65;7.15;;;7.00;65.40;;;;;;9183318;19;20018;-68
2022/03/28 03:50:08;;;;;;;16.13;6.18;;;7.00;65.50;;;;;;9182118;19;20018;-67
2022/03/28 03:53:13;;;;;;;15.20;6.47;;;6.90;65.50;;;;;;9181340;19;20017;-66
2022/03/28 03:56:21;;;;;;;14.73;6.82;;;6.90;65.60;;;;;;9182493;19;20484;-65
2022/03/28 03:59:26;;;;;;;11.15;6.07;;;6.90;65.80;;;;;;9183167;19;20029;-67
2022/03/28 04:02:31;;;;;;;8.98;4.68;;;6.90;65.80;;;;;;9179476;19;20573;-68
2022/03/28 04:05:37;;;;;;;10.23;5.32;;;6.90;65.90;;;;;;9182734;19;20617;-69
2022/03/28 04:08:43;;;;;;;9.88;4.43;;;6.90;65.90;;;;;;9180750;19;20014;-67
2022/03/28 04:11:50;;;;;;;13.95;4.70;;;6.80;65.90;;;;;;9182882;19;20015;-67
2022/03/28 04:14:59;;;;;;;9.65;4.32;;;6.90;66.10;;;;;;9178490;19;20011;-67
2022/03/28 04:18:04;;;;;;;6.53;3.92;;;6.90;66.00;;;;;;9180946;19;20014;-66
2022/03/28 04:21:09;;;;;;;8.07;4.45;;;6.80;66.00;;;;;;9175894;19;20014;-66
2022/03/28 04:24:14;;;;;;;7.28;4.20;;;6.80;66.10;;;;;;9180853;19;20014;-66
2022/03/28 04:27:22;;;;;;;7.25;3.85;;;6.80;66.20;;;;;;9180289;19;20014;-67
2022/03/28 04:30:27;;;;;;;5.72;3.45;;;6.80;66.30;;;;;;9180481;19;20855;-67
2022/03/28 04:33:32;;;;;;;5.00;3.10;;;6.80;66.30;;;;;;9179345;19;20007;-66
2022/03/28 04:36:38;;;;;;;6.70;3.47;;;6.80;66.30;;;;;;9182572;19;20014;-67
2022/03/28 04:39:44;;;;;;;9.73;4.15;;;6.80;66.30;;;;;;9180024;19;20362;-68
2022/03/28 04:42:51;;;;;;;9.00;4.28;;;6.80;66.40;;;;;;9178293;19;20011;-67
2022/03/28 04:45:56;;;;;;;7.43;3.47;;;6.80;66.50;;;;;;9180725;19;20018;-68
2022/03/28 04:49:02;;;;;;;6.20;2.80;;;6.80;66.40;;;;;;9179466;19;20003;-66
2022/03/28 04:52:07;;;;;;;4.97;2.97;;;6.80;66.40;;;;;;9181542;19;20022;-69
2022/03/28 04:55:13;;;;;;;8.10;2.97;;;6.80;66.50;;;;;;9179974;19;20021;-67
2022/03/28 04:58:21;;;;;;;6.40;3.17;;;6.80;66.60;;;;;;9179595;19;20015;-67
2022/03/28 05:01:26;;;;;;;4.53;3.05;;;6.80;66.60;;;;;;9179363;19;20018;-66
2022/03/28 05:04:31;;;;;;;5.20;3.08;;;6.80;66.60;;;;;;9184296;19;20365;-66
2022/03/28 05:07:36;;;;;;;6.55;3.38;;;6.80;66.60;;;;;;9189486;19;20027;-67
2022/03/28 05:10:43;;;;;;;7.55;2.88;;;6.80;66.70;;;;;;9190504;19;20014;-67
2022/03/28 05:13:50;;;;;;;5.07;2.92;;;6.80;66.70;;;;;;9188470;19;20026;-65
2022/03/28 05:16:55;;;;;;;4.45;2.47;;;6.80;66.80;;;;;;9190316;19;20015;-68
2022/03/28 05:20:02;;;;;;;7.82;2.72;;;6.80;66.80;;;;;;9185555;19;20345;-67
2022/03/28 05:23:07;;;;;;;5.53;2.83;;;6.80;66.80;;;;;;9184390;19;20033;-67
2022/03/28 05:26:12;;;;;;;4.22;2.25;;;6.80;66.80;;;;;;9188870;19;20015;-67
2022/03/28 05:29:23;;;;;;;5.68;2.63;;;6.80;66.90;;;;;;9187104;19;20018;-68
2022/03/28 05:32:28;;;;;;;6.50;2.50;;;6.80;67.00;;;;;;9188352;19;20018;-67
2022/03/28 05:35:34;;;;;;;7.85;3.58;;;6.80;66.90;;;;;;9186080;19;20463;-68
2022/03/28 05:38:40;;;;;;;5.38;2.75;;;6.80;66.90;;;;;;9187174;19;20018;-66
2022/03/28 05:41:45;;;;;;;2.78;1.90;;;6.80;67.00;;;;;;9187545;19;20014;-67
2022/03/28 05:44:53;;;;;;;6.07;2.00;;;6.70;67.00;;;;;;9187029;19;20023;-67
2022/03/28 05:47:58;;;;;;;5.47;2.58;;;6.70;67.00;;;;;;9186478;19;20011;-67
2022/03/28 05:51:03;;;;;;;4.25;2.58;;;6.70;67.60;;;;;;9186995;19;20018;-68
2022/03/28 05:54:08;;;;;;;5.75;2.72;;;6.70;67.10;;;;;;9184580;19;20028;-68
2022/03/28 05:57:13;;;;;;;4.30;2.10;;;6.70;67.10;;;;;;9187894;19;20021;-67
2022/03/28 06:00:21;;;;;;;8.63;2.72;;;6.70;67.20;;;;;;9187846;19;20007;-68
2022/03/28 06:03:26;;;;;;;4.25;2.42;;;6.70;67.30;;;;;;9185446;19;20015;-68
2022/03/28 06:06:40;;;;;;;4.50;2.78;;;6.70;67.30;;;;;;9185786;19;20038;-67
2022/03/28 06:09:45;;;;;;;7.00;2.30;;;6.70;67.20;;;;;;9186061;19;20041;-67
2022/03/28 06:12:51;;;;;;;7.70;2.47;;;6.60;67.20;;;;;;9186870;19;20353;-67
2022/03/28 06:15:59;;;;;;;4.68;2.63;;;6.60;67.30;;;;;;9180619;19;20044;-66
2022/03/28 06:19:04;;;;;;;5.63;2.20;;;6.60;67.40;;;;;;9174486;19;20022;-68
2022/03/28 06:22:09;;;;;;;5.53;2.97;;;6.60;67.40;;;;;;9177879;19;20014;-68
2022/03/28 06:25:15;;;;;;;4.10;2.40;;;6.60;67.50;;;;;;9178782;19;20113;-66
2022/03/28 06:28:38;;;;;;;10.00;2.70;;;6.60;67.60;;;;;;9177970;19;20002;-65
2022/03/28 06:31:46;;;;;;;9.63;2.40;;;6.60;67.50;;;;;;9176950;19;20029;-67
2022/03/28 06:34:52;;;;;;;6.40;2.38;;;6.60;67.60;;;;;;9179475;19;20024;-66
2022/03/28 06:37:58;;;;;;;3.15;2.15;;;6.60;67.70;;;;;;9180244;19;20014;-65
2022/03/28 06:41:03;;;;;;;9.40;2.55;;;6.60;67.70;;;;;;9182238;19;20018;-65
2022/03/28 06:44:11;;;;;;;8.93;3.60;;;6.60;67.80;;;;;;9181348;19;20014;-67
2022/03/28 06:47:19;;;;;;;3.63;2.03;;;6.60;67.90;;;;;;9184891;19;20026;-68
2022/03/28 06:50:27;;;;;;;4.63;2.20;;;6.60;67.90;;;;;;9183950;19;20019;-68
2022/03/28 06:53:32;;;;;;;5.38;2.17;;;6.60;67.90;;;;;;9184604;19;20010;-66
2022/03/28 06:56:37;;;;;;;7.57;2.80;;;6.60;68.00;;;;;;9184751;19;20073;-63
2022/03/28 06:59:42;;;;;;;9.00;2.55;;;6.70;68.10;;;;;;9181960;19;20018;-65
2022/03/28 07:02:50;;;;;;;8.35;2.90;;;6.70;68.10;;;;;;9183211;19;20017;-65
2022/03/28 07:05:55;;;;;;;6.40;2.63;;;6.70;68.30;;;;;;9184051;19;20022;-64
2022/03/28 07:09:04;;;;;;;8.52;3.40;;;6.70;68.20;;;;;;9180757;19;20026;-64
2022/03/28 07:12:10;;;;;;;8.70;3.35;;;6.70;68.20;;;;;;9183753;19;20344;-64
2022/03/28 07:15:16;;;;;;;9.18;3.70;;;6.70;68.30;;;;;;9183168;19;20019;-64
2022/03/28 07:18:23;;;;;;;9.60;3.53;;;6.80;68.30;;;;;;9183580;19;20010;-65
2022/03/28 07:21:28;;;;;;;11.52;4.00;;;6.80;68.30;;;;;;9178769;19;20006;-64
2022/03/28 07:24:33;;;;;;;10.30;4.63;;;6.80;68.30;;;;;;9180825;19;20014;-65
2022/03/28 07:27:40;;;;;;;11.60;3.40;;;6.80;68.40;;;;;;9178832;19;20014;-64
2022/03/28 07:30:44;;;;;;;7.47;3.55;;;6.80;68.40;;;;;;9182395;19;20010;-63
2022/03/28 07:34:29;;;;;;;6.63;3.45;;;6.90;68.40;;;;;;9183477;19;20049;-64
2022/03/28 07:37:17;;;;;;;15.43;4.35;;;6.90;68.50;;;;;;9182570;19;20018;-65
2022/03/28 07:40:22;;;;;;;9.85;4.07;;;6.90;68.40;;;;;;9181881;19;20021;-66
2022/03/28 07:43:27;;;;;;;14.68;5.07;;;6.90;68.50;;;;;;9180804;19;20409;-66
2022/03/28 07:46:33;;;;;;;17.33;5.30;;;7.00;68.50;;;;;;9183094;19;20020;-65
2022/03/28 07:49:40;;;;;;;12.63;4.63;;;7.00;68.50;;;;;;9183129;19;20014;-64
2022/03/28 07:52:46;;;;;;;15.48;5.53;;;7.10;68.70;;;;;;9183625;19;20105;-65
2022/03/28 07:55:51;;;;;;;14.48;4.55;;;7.10;68.70;;;;;;9181585;19;20018;-64
2022/03/28 07:58:56;;;;;;;17.30;5.05;;;7.10;68.60;;;;;;9182185;19;20491;-64
2022/03/28 08:02:01;;;;;;;13.73;5.45;;;7.20;68.60;;;;;;9182233;19;20022;-65
2022/03/28 08:05:11;;;;;;;16.42;5.22;;;7.20;68.60;;;;;;9181650;19;20400;-65
2022/03/28 08:08:16;;;;;;;16.10;5.85;;;7.20;68.70;;;;;;9175895;19;20377;-63
2022/03/28 08:11:21;;;;;;;16.95;5.88;;;7.30;68.70;;;;;;9167697;19;20089;-63
2022/03/28 08:14:26;;;;;;;8.65;4.05;;;7.30;68.60;;;;;;9172581;19;20019;-65
2022/03/28 08:17:31;;;;;;;10.07;3.97;;;7.40;68.70;;;;;;9181460;19;20011;-67
2022/03/28 08:20:39;;;;;;;11.73;4.45;;;7.40;68.70;;;;;;9172125;19;20099;-67
2022/03/28 08:23:43;;;;;;;14.57;5.10;;;7.50;68.90;;;;;;9177595;19;20019;-66
2022/03/28 08:26:49;;;;;;;16.48;5.13;;;7.50;68.90;;;;;;9176302;19;20019;-65
2022/03/28 08:29:54;;;;;;;9.77;4.70;;;7.50;68.90;;;;;;9177386;19;20364;-66
2022/03/28 08:32:59;;;;;;;13.68;5.28;;;7.60;68.90;;;;;;9177424;19;20399;-66
2022/03/28 08:36:07;;;;;;;17.38;5.95;;;7.60;68.90;;;;;;9180484;19;20021;-65
2022/03/28 08:39:12;;;;;;;12.40;5.53;;;7.70;69.10;;;;;;9181138;19;20098;-66
2022/03/28 08:42:17;;;;;;;12.90;4.68;;;7.70;69.00;;;;;;9188633;19;20022;-66
2022/03/28 08:45:24;;;;;;;14.30;4.95;;;7.70;69.00;;;;;;9183870;19;20363;-67
2022/03/28 08:48:33;;;;;;;10.60;4.53;;;7.80;69.10;;;;;;9186949;19;20018;-66
2022/03/28 08:51:41;;;;;;;15.77;5.53;;;7.80;69.10;;;;;;9185236;19;20011;-66
2022/03/28 08:54:46;;;;;;;15.23;5.13;;;7.90;69.20;;;;;;9181691;19;20054;-66
2022/03/28 08:57:51;;;;;;;9.90;4.50;;;7.90;69.10;;;;;;9187738;19;20481;-65
2022/03/28 09:00:56;;;;;;;12.52;4.88;;;8.00;69.10;;;;;;9183322;19;20022;-67
2022/03/28 09:04:09;;;;;;;13.63;5.47;;;8.00;69.20;;;;;;9183982;19;20011;-66
2022/03/28 09:07:27;;;;;;;12.40;5.70;;;8.10;69.40;;;;;;9184571;19;20019;-67
2022/03/28 09:10:35;;;;;;;15.02;5.72;;;8.20;69.40;;;;;;9189006;19;20025;-66
2022/03/28 09:13:46;;;;;;;15.30;5.68;;;8.20;69.20;;;;;;9181892;19;20047;-66
2022/03/28 09:17:04;;;;;;;16.30;6.70;;;8.30;69.30;;;;;;9185729;19;20048;-68
2022/03/28 09:20:11;;;;;;;14.45;5.80;;;8.30;69.30;;;;;;9179947;19;20060;-69
2022/03/28 09:23:49;;;;;;;13.25;5.57;;;8.40;69.20;;;;;;9185070;19;20021;-68
2022/03/28 09:27:12;;;;;;;17.00;6.38;;;8.50;69.50;;;;;;9183599;19;20058;-66
2022/03/28 09:30:19;;;;;;;16.70;6.55;;;8.50;69.30;;;;;;9186411;19;20026;-68
2022/03/28 09:33:25;;;;;;;15.15;6.68;;;8.60;69.20;;;;;;9186074;19;20367;-68
2022/03/28 09:36:38;;;;;;;20.33;7.55;;;8.60;69.10;;;;;;9186065;19;20014;-66
2022/03/28 09:39:46;;;;;;;15.02;6.57;;;8.60;69.30;;;;;;9186228;19;20078;-69
2022/03/28 09:42:52;;;;;;;16.95;7.07;;;8.70;69.30;;;;;;9184830;19;20025;-67
2022/03/28 09:45:59;;;;;;;12.88;6.30;;;8.80;69.30;;;;;;9183821;19;20015;-67
2022/03/28 09:49:04;;;;;;;14.98;6.50;;;8.80;69.30;;;;;;9182467;19;20018;-67
2022/03/28 09:52:12;;;;;;;18.15;6.93;;;8.80;69.30;;;;;;9182435;19;20317;-68
2022/03/28 09:55:20;;;;;;;13.23;5.97;;;9.00;69.40;;;;;;9183885;19;20045;-66
2022/03/28 09:58:46;;;;;;;15.95;6.53;;;9.00;69.30;;;;;;9183635;19;20017;-67
2022/03/28 10:01:51;;;;;;;21.58;6.75;;;9.10;69.50;;;;;;9184490;19;20011;-68
2022/03/28 10:05:01;;;;;;;17.65;6.15;;;9.10;69.30;;;;;;9180869;19;20025;-68
2022/03/28 10:08:08;;;;;;;19.25;6.97;;;9.20;69.30;;;;;;9179938;19;20467;-67
2022/03/28 10:11:16;;;;;;;14.82;6.97;;;9.30;69.30;;;;;;9185643;19;20372;-67
2022/03/28 10:14:22;;;;;;;16.08;6.80;;;9.30;69.30;;;;;;9187510;19;20021;-69
2022/03/28 10:17:28;;;;;;;16.85;6.60;;;9.40;69.30;;;;;;9182570;19;20025;-68
2022/03/28 10:20:33;;;;;;;18.38;8.57;;;9.40;69.20;;;;;;9182305;19;20018;-67
2022/03/28 10:23:50;;;;;;;18.80;7.25;;;9.50;69.40;;;;;;9182160;19;20359;-68
2022/03/28 10:27:02;;;;;;;18.45;7.45;;;9.60;69.40;;;;;;9181739;19;20006;-66
2022/03/28 10:30:21;;;;;;;19.77;7.03;;;9.60;69.40;;;;;;9181759;19;20026;-67
2022/03/28 10:33:28;;;;;;;16.15;6.53;;;9.70;69.50;;;;;;9185856;19;20067;-69
2022/03/28 10:36:34;;;;;;;15.63;6.97;;;9.80;69.30;;;;;;9182198;19;20018;-67
2022/03/28 10:39:39;;;;;;;16.92;7.05;;;9.90;69.30;;;;;;9180565;19;20086;-69
2022/03/28 10:42:52;;;;;;;19.27;6.90;;;9.90;69.20;;;;;;9183001;19;20022;-67
2022/03/28 10:45:59;;;;;;;14.00;6.00;;;10.00;69.30;;;;;;9182015;19;20014;-68
2022/03/28 10:49:07;;;;;;;13.45;6.65;;;10.10;69.30;;;;;;9185583;19;20029;-67
2022/03/28 10:52:17;;;;;;;20.13;6.82;;;10.20;69.30;;;;;;9183342;19;20010;-72
2022/03/28 10:55:34;;;;;;;14.90;6.57;;;10.30;69.40;;;;;;9183336;19;20014;-72
2022/03/28 10:58:43;;;;;;;15.63;6.90;;;10.50;69.30;;;;;;9182055;19;20026;-70
2022/03/28 11:01:50;;;;;;;17.08;6.68;;;10.50;69.30;;;;;;9179770;19;20463;-73
2022/03/28 11:04:55;;;;;;;14.68;6.65;;;10.70;69.20;;;;;;9177146;19;20459;-69
2022/03/28 11:08:34;;;;;;;12.80;6.28;;;10.80;69.10;;;;;;9178446;19;20022;-71
2022/03/28 11:11:39;;;;;;;28.08;8.60;;;10.90;69.30;;;;;;9178412;19;20475;-72
2022/03/28 11:14:56;;;;;;;16.38;7.53;;;11.00;69.00;;;;;;9181267;19;20549;-71
2022/03/28 11:18:09;;;;;;;14.90;7.35;;;11.10;69.10;;;;;;9180828;19;20095;-72
2022/03/28 11:21:15;;;;;;;17.43;7.27;;;11.30;69.00;;;;;;9175721;19;20655;-72
2022/03/28 11:24:48;;;;;;;16.42;7.22;;;11.40;68.90;;;;;;9179355;19;20872;-73
2022/03/28 11:28:02;;;;;;;13.63;7.20;;;11.50;69.10;;;;;;9181249;19;20021;-71
2022/03/28 11:31:15;;;;;;;15.48;7.03;;;11.70;69.00;;;;;;9180101;19;20463;-72
2022/03/28 11:34:21;;;;;;;12.25;6.45;;;11.90;68.90;;;;;;9181552;19;20019;-70
2022/03/28 11:37:29;;;;;;;13.43;6.65;;;12.10;68.80;;;;;;9181877;19;20015;-70
2022/03/28 11:40:41;;;;;;;16.73;6.72;;;12.20;68.90;;;;;;9182579;19;20026;-71
2022/03/28 11:43:47;;;;;;;23.33;7.40;;;12.40;68.70;;;;;;9176718;19;20015;-69
2022/03/28 11:47:00;;;;;;;18.02;7.43;;;12.60;68.60;;;;;;9170662;19;20363;-70
2022/03/28 11:50:08;;;;;;;14.50;6.78;;;12.80;68.60;;;;;;9172939;19;20026;-72
2022/03/28 11:53:15;;;;;;;17.27;6.65;;;13.00;68.40;;;;;;9177518;19;20026;-72
2022/03/28 11:56:28;;;;;;;17.20;6.53;;;13.20;68.20;;;;;;9175394;19;20049;-72
2022/03/28 11:59:33;;;;;;;13.15;6.35;;;13.40;68.00;;;;;;9174097;19;20082;-72
2022/03/28 12:02:48;;;;;;;11.50;6.63;;;13.60;67.90;;;;;;9173045;19;20022;-72
2022/03/28 12:05:53;;;;;;;19.35;7.07;;;13.80;67.60;;;;;;9170803;19;20025;-72
2022/03/28 12:09:00;;;;;;;15.27;7.38;;;14.00;67.50;;;;;;9173601;19;20332;-72
2022/03/28 12:12:08;;;;;;;16.02;7.28;;;14.10;67.10;;;;;;9171820;19;20139;-70
2022/03/28 12:15:26;;;;;;;19.08;6.97;;;14.30;67.10;;;;;;9174165;19;20022;-72
2022/03/28 12:18:34;;;;;;;19.77;7.65;;;14.50;66.80;;;;;;9169401;19;20014;-72
2022/03/28 12:21:39;;;;;;;23.30;8.57;;;14.60;66.60;;;;;;9172001;19;20015;-71
2022/03/28 12:24:52;;;;;;;16.85;8.30;;;14.80;66.60;;;;;;9172605;19;20022;-69
2022/03/28 12:27:59;;;;;;;18.20;7.95;;;14.90;66.20;;;;;;9174738;19;20021;-72
2022/03/28 12:31:06;;;;;;;20.83;8.80;;;15.00;66.10;;;;;;9171994;19;20018;-70
2022/03/28 12:34:15;;;;;;;19.65;8.50;;;15.20;66.00;;;;;;9172686;19;20478;-71
2022/03/28 12:37:20;;;;;;;20.88;9.25;;;15.30;65.70;;;;;;9173233;19;20022;-71
2022/03/28 12:40:29;;;;;;;18.63;8.23;;;15.40;65.60;;;;;;9171381;19;20017;-70
2022/03/28 12:43:35;;;;;;;16.40;8.55;;;15.50;65.40;;;;;;9175573;19;20363;-66
2022/03/28 12:46:41;;;;;;;22.58;9.45;;;15.60;65.30;;;;;;9170648;19;20022;-70
2022/03/28 12:49:48;;;;;;;17.50;9.25;;;15.70;65.10;;;;;;9173191;19;20107;-66
2022/03/28 12:52:54;;;;;;;19.42;9.10;;;15.80;64.90;;;;;;9171722;19;20089;-71
2022/03/28 12:56:15;;;;;;;23.83;10.55;;;15.90;65.50;;;;;;9172202;19;20025;-71
2022/03/28 12:59:21;;;;;;;26.05;10.57;;;15.90;64.60;;;;;;9169058;19;20043;-71
2022/03/28 13:02:27;;;;;;;24.25;11.05;;;16.00;64.60;;;;;;9172787;19;20345;-68
2022/03/28 13:05:37;;;;;;;29.02;12.77;;;16.10;64.50;;;;;;9171679;19;20018;-69
2022/03/28 13:08:43;;;;;;;25.88;12.38;;;16.10;64.20;;;;;;9163368;19;20018;-73
2022/03/28 13:11:48;;;;;;;23.23;11.50;;;16.10;64.10;;;;;;9168032;19;20195;-70
2022/03/28 13:14:53;;;;;;;26.90;11.70;;;16.20;64.00;;;;;;9168073;19;20030;-71
2022/03/28 13:18:09;;;;;;;24.20;11.75;;;16.20;63.80;;;;;;9170838;19;20019;-69
2022/03/28 13:21:22;;;;;;;36.50;12.45;;;16.20;63.60;;;;;;9166049;19;20368;-69
2022/03/28 13:24:31;;;;;;;29.83;13.05;;;16.20;63.50;;;;;;9170193;19;20029;-70
2022/03/28 13:30:57;;;;;;;21.70;11.98;;;16.30;63.50;;;;;;9176919;19;20073;-69
2022/03/28 13:34:04;;;;;;;23.58;11.75;;;16.30;63.30;;;;;;9177705;19;20014;-71
2022/03/28 13:37:15;;;;;;;27.27;11.90;;;16.30;63.30;;;;;;9180464;19;20015;-71
2022/03/28 13:40:20;;;;;;;25.20;11.30;;;16.40;63.20;;;;;;9179299;19;20019;-71
2022/03/28 13:43:27;;;;;;;26.20;13.02;;;16.40;63.20;;;;;;9179351;19;20018;-72
2022/03/28 13:46:33;;;;;;;24.45;10.68;;;16.40;63.10;;;;;;9175477;19;20022;-70
2022/03/28 13:49:38;;;;;;;25.55;11.18;;;16.50;63.00;;;;;;9178296;19;20029;-70
2022/03/28 13:52:46;;;;;;;23.45;11.20;;;16.50;62.90;;;;;;9175355;19;20026;-66
2022/03/28 13:55:51;;;;;;;21.02;10.77;;;16.50;62.80;;;;;;9180778;19;20586;-71
2022/03/28 13:58:57;;;;;;;20.65;11.30;;;16.50;62.80;;;;;;9178970;19;20021;-72
2022/03/28 14:02:02;;;;;;;22.00;10.57;;;16.60;62.80;;;;;;9175195;19;20252;-71
2022/03/28 14:05:08;;;;;;;21.70;10.02;;;16.60;62.70;;;;;;9177294;19;20025;-72
2022/03/28 14:08:16;;;;;;;20.90;10.30;;;16.60;62.50;;;;;;9176734;19;20022;-70
2022/03/28 14:11:21;;;;;;;20.08;10.70;;;16.60;62.30;;;;;;9177691;19;20034;-70
2022/03/28 14:14:26;;;;;;;19.50;10.57;;;16.60;62.30;;;;;;9174413;19;20022;-69
2022/03/28 14:17:32;;;;;;;19.80;10.25;;;16.60;62.20;;;;;;9178714;19;20026;-70
2022/03/28 14:20:37;;;;;;;19.55;10.95;;;16.60;62.30;;;;;;9176252;19;20046;-70
2022/03/28 14:23:45;;;;;;;16.67;9.48;;;16.60;62.20;;;;;;9178217;19;20025;-72
2022/03/28 14:26:52;;;;;;;15.18;9.23;;;16.60;62.10;;;;;;9170780;19;20021;-67
2022/03/28 14:29:57;;;;;;;14.73;9.02;;;16.70;62.10;;;;;;9167248;19;20033;-70
2022/03/28 14:33:02;;;;;;;18.98;9.40;;;16.70;62.10;;;;;;9174117;19;20041;-70
2022/03/28 14:36:08;;;;;;;15.05;8.80;;;16.70;62.00;;;;;;9179060;19;20031;-73
2022/03/28 14:39:15;;;;;;;15.85;8.93;;;16.70;61.90;;;;;;9178727;19;20021;-70
2022/03/28 14:42:21;;;;;;;17.92;8.65;;;16.70;61.80;;;;;;9178608;19;20573;-73
2022/03/28 14:45:28;;;;;;;13.30;8.40;;;16.70;61.70;;;;;;9174164;19;20015;-73
2022/03/28 14:48:35;;;;;;;12.75;8.38;;;16.80;61.70;;;;;;9176173;19;20014;-72
2022/03/28 14:51:40;;;;;;;13.65;8.40;;;16.80;61.60;;;;;;9177538;19;20015;-72
2022/03/28 14:54:48;;;;;;;17.63;8.50;;;16.80;61.50;;;;;;9171034;19;20015;-70
2022/03/28 14:57:54;;;;;;;11.90;8.27;;;16.80;61.50;;;;;;9175792;19;20011;-68
2022/03/28 15:00:59;;;;;;;12.70;8.02;;;16.80;61.40;;;;;;9173422;19;20621;-69
2022/03/28 15:04:04;;;;;;;22.33;8.55;;;16.80;61.30;;;;;;9175954;19;20018;-72
2022/03/28 15:07:09;;;;;;;12.95;8.23;;;16.80;61.20;;;;;;9173429;19;20067;-72
2022/03/28 15:10:17;;;;;;;14.75;7.70;;;16.80;61.10;;;;;;9177437;19;20041;-71
2022/03/28 15:13:22;;;;;;;14.05;8.18;;;16.80;60.90;;;;;;9177236;19;20022;-72
2022/03/28 15:16:27;;;;;;;11.45;7.65;;;16.80;60.90;;;;;;9175851;19;20018;-71
2022/03/28 15:19:32;;;;;;;12.80;7.68;;;16.70;60.80;;;;;;9168710;19;20014;-72
2022/03/28 15:22:37;;;;;;;13.40;8.20;;;16.70;60.80;;;;;;9168643;19;20026;-72
2022/03/28 15:25:46;;;;;;;11.25;7.82;;;16.70;60.80;;;;;;9174715;19;20036;-72
2022/03/28 15:28:51;;;;;;;17.08;7.88;;;16.70;60.70;;;;;;9175392;19;20015;-72
2022/03/28 15:31:56;;;;;;;11.63;7.30;;;16.60;60.60;;;;;;9171805;19;20015;-69
2022/03/28 15:35:01;;;;;;;17.88;8.07;;;16.60;60.60;;;;;;9175539;19;20017;-71
2022/03/28 15:38:09;;;;;;;15.38;8.00;;;16.60;60.50;;;;;;9172508;19;20021;-69
2022/03/28 15:41:18;;;;;;;14.80;7.22;;;16.50;60.50;;;;;;9178211;19;20482;-73
2022/03/28 15:44:24;;;;;;;14.90;7.05;;;16.50;60.40;;;;;;9182124;19;20093;-73
2022/03/28 15:47:29;;;;;;;15.93;8.02;;;16.40;60.40;;;;;;9180891;19;20018;-73
2022/03/28 15:50:34;;;;;;;12.05;7.00;;;16.40;60.40;;;;;;9184117;19;20043;-73
2022/03/28 15:53:43;;;;;;;14.73;7.50;;;16.30;60.30;;;;;;9180442;19;20098;-73
2022/03/28 15:56:51;;;;;;;12.38;6.93;;;16.30;60.30;;;;;;9177542;19;20075;-71
2022/03/28 15:59:56;;;;;;;13.93;7.07;;;16.20;60.20;;;;;;9174892;19;20078;-73
2022/03/28 16:03:01;;;;;;;8.48;6.53;;;16.20;60.20;;;;;;9176711;19;20585;-71
2022/03/28 16:06:06;;;;;;;10.40;6.82;;;16.20;60.10;;;;;;9175207;19;20011;-70
2022/03/28 16:09:16;;;;;;;8.95;6.55;;;16.10;60.10;;;;;;9174526;19;20479;-73
2022/03/28 16:12:24;;;;;;;12.55;7.78;;;16.10;60.10;;;;;;9179498;19;20014;-72
2022/03/28 16:15:31;;;;;;;12.30;7.15;;;16.00;60.10;;;;;;9180975;19;20011;-73